Time,TemperatureF,DewpointF,PressureIn,WindDirection,WindDirectionDegrees,WindSpeedMPH,WindSpeedGustMPH,Humidity,HourlyPrecipIn,Conditions,Clouds,dailyrainin,SoftwareType,DateUTC
2013-02-24 00:00:00,26.6,24.3,30.08,NW,310,0.0,2.0,91,0.00,,,0.00,WeatherCatV1.11B39,2013-02-24 07:00:00,
2013-02-24 00:05:00,26.6,24.3,30.07,NW,310,0.0,1.0,91,0.00,,,0.00,WeatherCatV1.11B39,2013-02-24 07:05:00,
2013-02-24 00:10:00,26.5,24.2,30.06,NW,310,0.0,1.0,91,0.00,,,0.00,WeatherCatV1.11B39,2013-02-24 07:10:00,
2013-02-24 00:15:00,26.5,24.2,30.07,NW,310,0.0,0.0,91,0.00,,,0.00,WeatherCatV1.11B39,2013-02-24 07:15:00,
2013-02-24 00:20:00,26.5,24.2,30.06,NW,310,0.0,2.0,91,0.00,,,0.00,WeatherCatV1.11B39,2013-02-24 07:20:00,
2013-02-24 00:25:00,26.4,24.1,30.06,NW,310,0.0,0.0,91,0.00,,,0.00,WeatherCatV1.11B39,2013-02-24 07:25:00,
2013-02-24 00:30:00,26.3,24.0,30.07,NW,310,0.0,1.0,91,0.00,,,0.00,WeatherCatV1.11B39,2013-02-24 07:30:00,
2013-02-24 00:35:00,26.3,24.0,30.06,NW,310,0.0,0.0,91,0.00,,,0.00,WeatherCatV1.11B39,2013-02-24 07:35:00,
2013-02-24 00:40:00,26.3,24.0,30.06,NW,311,0.0,0.0,91,0.00,,,0.00,WeatherCatV1.11B39,2013-02-24 07:40:00,
2013-02-24 00:45:00,26.3,24.0,30.06,NW,310,0.0,0.0,91,0.00,,,0.00,WeatherCatV1.11B39,2013-02-24 07:45:00,
2013-02-24 00:50:00,26.2,23.9,30.06,NW,310,0.0,0.0,91,0.00,,,0.00,WeatherCatV1.11B39,2013-02-24 07:50:00,
2013-02-24 00:55:00,26.2,23.9,30.06,NW,311,0.0,0.0,91,0.00,,,0.00,WeatherCatV1.11B39,2013-02-24 07:55:00,
2013-02-24 01:00:00,26.2,23.9,30.06,NW,310,0.0,0.0,91,0.00,,,0.00,WeatherCatV1.11B39,2013-02-24 08:00:00,
2013-02-24 01:05:00,26.1,23.8,30.07,WNW,296,1.0,4.0,91,0.00,,,0.00,WeatherCatV1.11B39,2013-02-24 08:05:00,
2013-02-24 01:10:00,26.0,23.5,30.06,WNW,287,11.0,17.0,90,0.00,,,0.00,WeatherCatV1.11B39,2013-02-24 08:10:00,
2013-02-24 01:15:00,25.4,21.8,30.07,WNW,287,10.0,19.0,86,0.00,,,0.00,WeatherCatV1.11B39,2013-02-24 08:15:00,
2013-02-24 01:20:00,24.7,21.1,30.07,West,263,11.0,14.0,86,0.00,,,0.00,WeatherCatV1.11B39,2013-02-24 08:20:00,
2013-02-24 01:25:00,24.2,20.9,30.08,WNW,283,5.0,15.0,87,0.00,,,0.00,WeatherCatV1.11B39,2013-02-24 08:25:00,
2013-02-24 01:30:00,23.8,20.5,30.08,NW,306,6.0,15.0,87,0.00,,,0.00,WeatherCatV1.11B39,2013-02-24 08:30:00,
2013-02-24 01:35:00,23.4,20.4,30.08,West,281,6.0,13.0,88,0.00,,,0.00,WeatherCatV1.11B39,2013-02-24 08:35:00,
2013-02-24 01:40:00,23.1,20.1,30.08,West,274,10.0,12.0,88,0.00,,,0.00,WeatherCatV1.11B39,2013-02-24 08:40:00,
2013-02-24 01:45:00,22.9,19.9,30.09,WNW,284,4.0,13.0,88,0.00,,,0.00,WeatherCatV1.11B39,2013-02-24 08:45:00,
2013-02-24 01:50:00,22.8,19.8,30.09,NW,304,7.0,13.0,88,0.00,,,0.00,WeatherCatV1.11B39,2013-02-24 08:50:00,
2013-02-24 01:55:00,22.6,19.9,30.09,WNW,301,6.0,10.0,89,0.00,,,0.00,WeatherCatV1.11B39,2013-02-24 08:55:00,
2013-02-24 02:00:00,22.4,19.9,30.09,WNW,296,12.0,12.0,90,0.00,,,0.00,WeatherCatV1.11B39,2013-02-24 09:00:00,
2013-02-24 02:05:00,22.2,19.7,30.09,WNW,286,4.0,11.0,90,0.00,,,0.00,WeatherCatV1.11B39,2013-02-24 09:05:00,
2013-02-24 02:10:00,22.1,19.6,30.09,WNW,283,9.0,12.0,90,0.00,,,0.00,WeatherCatV1.11B39,2013-02-24 09:10:00,
2013-02-24 02:15:00,22.0,19.8,30.09,NW,315,8.0,12.0,91,0.00,,,0.00,WeatherCatV1.11B39,2013-02-24 09:15:00,
2013-02-24 02:20:00,21.9,19.7,30.09,WNW,287,9.0,9.0,91,0.00,,,0.00,WeatherCatV1.11B39,2013-02-24 09:20:00,
2013-02-24 02:25:00,21.8,19.6,30.09,NW,313,4.0,9.0,91,0.00,,,0.00,WeatherCatV1.11B39,2013-02-24 09:25:00,
2013-02-24 02:30:00,21.8,19.6,30.09,West,271,2.0,9.0,91,0.00,,,0.00,WeatherCatV1.11B39,2013-02-24 09:30:00,
2013-02-24 02:35:00,21.8,19.6,30.09,WSW,255,6.0,9.0,91,0.00,,,0.00,WeatherCatV1.11B39,2013-02-24 09:35:00,
2013-02-24 02:40:00,21.7,19.5,30.09,WNW,303,6.0,7.0,91,0.00,,,0.00,WeatherCatV1.11B39,2013-02-24 09:40:00,
2013-02-24 02:45:00,21.7,19.5,30.09,WNW,284,7.0,10.0,91,0.00,,,0.00,WeatherCatV1.11B39,2013-02-24 09:45:00,
2013-02-24 02:50:00,21.7,19.5,30.09,WSW,247,6.0,8.0,91,0.00,,,0.00,WeatherCatV1.11B39,2013-02-24 09:50:00,
2013-02-24 02:55:00,21.7,19.5,30.09,West,271,6.0,10.0,91,0.00,,,0.00,WeatherCatV1.11B39,2013-02-24 09:55:00,
2013-02-24 03:00:00,21.7,19.2,30.09,West,271,9.0,11.0,90,0.00,,,0.00,WeatherCatV1.11B39,2013-02-24 10:00:00,
2013-02-24 03:05:00,21.7,19.2,30.09,WSW,251,5.0,10.0,90,0.00,,,0.00,WeatherCatV1.11B39,2013-02-24 10:05:00,
2013-02-24 03:10:00,21.6,19.1,30.09,WNW,282,9.0,11.0,90,0.00,,,0.00,WeatherCatV1.11B39,2013-02-24 10:10:00,
2013-02-24 03:15:00,21.6,19.1,30.09,WNW,284,5.0,11.0,90,0.00,,,0.00,WeatherCatV1.11B39,2013-02-24 10:15:00,
2013-02-24 03:20:00,21.6,19.1,30.10,West,276,6.0,6.0,90,0.00,,,0.00,WeatherCatV1.11B39,2013-02-24 10:20:00,
2013-02-24 03:25:00,21.5,19.0,30.10,NW,311,5.0,10.0,90,0.00,,,0.00,WeatherCatV1.11B39,2013-02-24 10:25:00,
2013-02-24 03:30:00,21.4,18.9,30.10,West,271,6.0,8.0,90,0.00,,,0.00,WeatherCatV1.11B39,2013-02-24 10:30:00,
2013-02-24 03:35:00,21.4,18.9,30.10,WSW,246,4.0,7.0,90,0.00,,,0.00,WeatherCatV1.11B39,2013-02-24 10:35:00,
2013-02-24 03:40:00,21.3,18.8,30.10,WSW,240,5.0,8.0,90,0.00,,,0.00,WeatherCatV1.11B39,2013-02-24 10:40:00,
2013-02-24 03:45:00,21.2,18.7,30.10,West,259,5.0,7.0,90,0.00,,,0.00,WeatherCatV1.11B39,2013-02-24 10:45:00,
2013-02-24 03:50:00,21.2,18.7,30.10,WNW,294,2.0,8.0,90,0.00,,,0.00,WeatherCatV1.11B39,2013-02-24 10:50:00,
2013-02-24 03:55:00,21.2,19.0,30.11,WNW,284,5.0,5.0,91,0.00,,,0.00,WeatherCatV1.11B39,2013-02-24 10:55:00,
2013-02-24 04:00:00,21.2,19.0,30.11,West,280,3.0,5.0,91,0.00,,,0.00,WeatherCatV1.11B39,2013-02-24 11:00:00,
2013-02-24 04:05:00,21.1,18.6,30.12,West,266,5.0,5.0,90,0.00,,,0.00,WeatherCatV1.11B39,2013-02-24 11:05:00,
2013-02-24 04:10:00,21.1,18.6,30.12,WSW,254,2.0,4.0,90,0.00,,,0.00,WeatherCatV1.11B39,2013-02-24 11:10:00,
2013-02-24 04:15:00,21.1,18.4,30.12,West,263,6.0,6.0,89,0.00,,,0.00,WeatherCatV1.11B39,2013-02-24 11:15:00,
2013-02-24 04:20:00,21.1,18.4,30.13,West,275,2.0,2.0,89,0.00,,,0.00,WeatherCatV1.11B39,2013-02-24 11:20:00,
2013-02-24 04:25:00,21.0,18.3,30.13,West,275,2.0,4.0,89,0.00,,,0.00,WeatherCatV1.11B39,2013-02-24 11:25:00,
2013-02-24 04:30:00,21.0,18.3,30.13,West,275,2.0,2.0,89,0.00,,,0.00,WeatherCatV1.11B39,2013-02-24 11:30:00,
2013-02-24 04:35:00,20.9,18.2,30.13,West,275,1.0,2.0,89,0.00,,,0.00,WeatherCatV1.11B39,2013-02-24 11:35:00,
2013-02-24 04:40:00,20.9,18.2,30.13,West,276,4.0,4.0,89,0.00,,,0.00,WeatherCatV1.11B39,2013-02-24 11:40:00,
2013-02-24 04:45:00,20.9,18.2,30.13,West,273,3.0,5.0,89,0.00,,,0.00,WeatherCatV1.11B39,2013-02-24 11:45:00,
2013-02-24 04:50:00,20.8,18.1,30.13,West,270,5.0,6.0,89,0.00,,,0.00,WeatherCatV1.11B39,2013-02-24 11:50:00,
2013-02-24 04:55:00,20.7,18.0,30.13,West,277,2.0,4.0,89,0.00,,,0.00,WeatherCatV1.11B39,2013-02-24 11:55:00,
2013-02-24 05:00:00,20.7,18.0,30.13,West,273,3.0,4.0,89,0.00,,,0.00,WeatherCatV1.11B39,2013-02-24 12:00:00,
2013-02-24 05:05:00,20.7,18.0,30.14,West,273,1.0,5.0,89,0.00,,,0.00,WeatherCatV1.11B39,2013-02-24 12:05:00,
2013-02-24 05:10:00,20.6,17.9,30.14,West,276,0.0,3.0,89,0.00,,,0.00,WeatherCatV1.11B39,2013-02-24 12:10:00,
2013-02-24 05:15:00,20.6,17.9,30.14,West,277,4.0,6.0,89,0.00,,,0.00,WeatherCatV1.11B39,2013-02-24 12:15:00,
2013-02-24 05:20:00,20.6,17.9,30.14,NW,307,4.0,5.0,89,0.00,,,0.00,WeatherCatV1.11B39,2013-02-24 12:20:00,
2013-02-24 05:25:00,20.6,17.9,30.14,WNW,298,0.0,2.0,89,0.00,,,0.00,WeatherCatV1.11B39,2013-02-24 12:25:00,
2013-02-24 05:30:00,20.5,17.5,30.14,WNW,303,0.0,4.0,88,0.00,,,0.00,WeatherCatV1.11B39,2013-02-24 12:30:00,
2013-02-24 05:35:00,20.5,17.5,30.14,West,259,0.0,3.0,88,0.00,,,0.00,WeatherCatV1.11B39,2013-02-24 12:35:00,
2013-02-24 05:40:00,20.5,17.8,30.14,West,261,2.0,3.0,89,0.00,,,0.00,WeatherCatV1.11B39,2013-02-24 12:40:00,
2013-02-24 05:45:00,20.5,17.5,30.14,WNW,288,0.0,2.0,88,0.00,,,0.00,WeatherCatV1.11B39,2013-02-24 12:45:00,
2013-02-24 05:50:00,20.5,17.8,30.14,WNW,288,0.0,2.0,89,0.00,,,0.00,WeatherCatV1.11B39,2013-02-24 12:50:00,
2013-02-24 05:55:00,20.5,17.8,30.14,WNW,288,0.0,1.0,89,0.00,,,0.00,WeatherCatV1.11B39,2013-02-24 12:55:00,
2013-02-24 06:00:00,20.5,17.8,30.15,WNW,288,1.0,3.0,89,0.00,,,0.00,WeatherCatV1.11B39,2013-02-24 13:00:00,
2013-02-24 06:05:00,20.4,17.7,30.15,WNW,288,0.0,1.0,89,0.00,,,0.00,WeatherCatV1.11B39,2013-02-24 13:05:00,
2013-02-24 06:10:00,20.4,17.9,30.15,WNW,288,0.0,2.0,90,0.00,,,0.00,WeatherCatV1.11B39,2013-02-24 13:10:00,
2013-02-24 06:15:00,20.4,17.9,30.15,WNW,288,0.0,0.0,90,0.00,,,0.00,WeatherCatV1.11B39,2013-02-24 13:15:00,
2013-02-24 06:20:00,20.3,17.8,30.15,WNW,288,0.0,2.0,90,0.00,,,0.00,WeatherCatV1.11B39,2013-02-24 13:20:00,
2013-02-24 06:25:00,20.3,17.8,30.15,WNW,288,0.0,0.0,90,0.00,,,0.00,WeatherCatV1.11B39,2013-02-24 13:25:00,
2013-02-24 06:30:00,20.2,17.7,30.16,WNW,288,2.0,2.0,90,0.00,,,0.00,WeatherCatV1.11B39,2013-02-24 13:30:00,
2013-02-24 06:35:00,20.2,17.7,30.16,WNW,288,1.0,2.0,90,0.00,,,0.00,WeatherCatV1.11B39,2013-02-24 13:35:00,
2013-02-24 06:40:00,20.2,17.5,30.15,WNW,288,0.0,4.0,89,0.00,,,0.00,WeatherCatV1.11B39,2013-02-24 13:40:00,
2013-02-24 06:45:00,20.1,17.4,30.15,WNW,288,1.0,2.0,89,0.00,,,0.00,WeatherCatV1.11B39,2013-02-24 13:45:00,
2013-02-24 06:50:00,20.1,17.4,30.16,WNW,288,0.0,3.0,89,0.00,,,0.00,WeatherCatV1.11B39,2013-02-24 13:50:00,
2013-02-24 06:55:00,20.1,17.4,30.16,WSW,248,0.0,1.0,89,0.00,,,0.00,WeatherCatV1.11B39,2013-02-24 13:55:00,
2013-02-24 07:00:00,20.1,17.4,30.16,WSW,248,0.0,1.0,89,0.00,,,0.00,WeatherCatV1.11B39,2013-02-24 14:00:00,
2013-02-24 07:05:00,20.1,17.1,30.16,WSW,248,0.0,3.0,88,0.00,,,0.00,WeatherCatV1.11B39,2013-02-24 14:05:00,
2013-02-24 07:10:00,20.1,17.1,30.17,WSW,248,0.0,0.0,88,0.00,,,0.00,WeatherCatV1.11B39,2013-02-24 14:10:00,
2013-02-24 07:15:00,20.1,16.9,30.16,WNW,297,0.0,3.0,87,0.00,,,0.00,WeatherCatV1.11B39,2013-02-24 14:15:00,
2013-02-24 07:20:00,20.2,16.7,30.16,West,271,3.0,4.0,86,0.00,,,0.00,WeatherCatV1.11B39,2013-02-24 14:20:00,
2013-02-24 07:25:00,20.2,16.7,30.16,West,275,1.0,3.0,86,0.00,,,0.00,WeatherCatV1.11B39,2013-02-24 14:25:00,
2013-02-24 07:30:00,20.3,16.8,30.17,West,275,1.0,1.0,86,0.00,,,0.00,WeatherCatV1.11B39,2013-02-24 14:30:00,
2013-02-24 07:35:00,20.3,16.8,30.17,West,275,0.0,1.0,86,0.00,,,0.00,WeatherCatV1.11B39,2013-02-24 14:35:00,
2013-02-24 07:40:00,20.4,16.6,30.17,West,275,0.0,3.0,85,0.00,,,0.00,WeatherCatV1.11B39,2013-02-24 14:40:00,
2013-02-24 07:45:00,20.5,16.7,30.17,West,275,0.0,0.0,85,0.00,,,0.00,WeatherCatV1.11B39,2013-02-24 14:45:00,
2013-02-24 07:46:00,20.5,16.7,30.17,West,275,0.0,0.0,85,0.00,,,0.00,WeatherCatV1.11B39,2013-02-24 14:46:00,
2013-02-24 07:51:00,20.6,17.1,30.17,West,275,0.0,0.0,86,0.00,,,0.00,WeatherCatV1.11B39,2013-02-24 14:51:00,
2013-02-24 07:56:00,20.8,17.0,30.17,West,275,0.0,1.0,85,0.00,,,0.00,WeatherCatV1.11B39,2013-02-24 14:56:00,
2013-02-24 08:01:00,20.9,17.1,30.17,West,275,0.0,0.0,85,0.00,,,0.00,WeatherCatV1.11B39,2013-02-24 15:01:00,
2013-02-24 08:06:00,21.0,17.2,30.17,West,275,0.0,0.0,85,0.00,,,0.00,WeatherCatV1.11B39,2013-02-24 15:06:00,
2013-02-24 08:11:00,21.1,17.3,30.17,West,275,0.0,1.0,85,0.00,,,0.00,WeatherCatV1.11B39,2013-02-24 15:11:00,
2013-02-24 08:16:00,21.1,16.8,30.18,West,275,0.0,0.0,83,0.00,,,0.00,WeatherCatV1.11B39,2013-02-24 15:16:00,
2013-02-24 08:21:00,21.2,17.4,30.18,West,275,0.0,0.0,85,0.00,,,0.00,WeatherCatV1.11B39,2013-02-24 15:21:00,
2013-02-24 08:26:00,21.3,17.5,30.18,West,275,0.0,0.0,85,0.00,,,0.00,WeatherCatV1.11B39,2013-02-24 15:26:00,
2013-02-24 08:31:00,21.4,17.6,30.18,West,275,0.0,0.0,85,0.00,,,0.00,WeatherCatV1.11B39,2013-02-24 15:31:00,
2013-02-24 08:36:00,21.6,17.5,30.18,West,275,0.0,0.0,84,0.00,,,0.00,WeatherCatV1.11B39,2013-02-24 15:36:00,
2013-02-24 08:41:00,21.8,18.0,30.18,West,275,0.0,1.0,85,0.00,,,0.00,WeatherCatV1.11B39,2013-02-24 15:41:00,
2013-02-24 08:46:00,21.9,17.8,30.18,West,275,1.0,2.0,84,0.00,,,0.00,WeatherCatV1.11B39,2013-02-24 15:46:00,
2013-02-24 08:51:00,22.0,17.9,30.19,West,275,1.0,2.0,84,0.00,,,0.00,WeatherCatV1.11B39,2013-02-24 15:51:00,
2013-02-24 08:56:00,22.2,18.1,30.19,West,275,0.0,2.0,84,0.00,,,0.00,WeatherCatV1.11B39,2013-02-24 15:56:00,
2013-02-24 09:01:00,22.4,18.6,30.18,West,275,0.0,1.0,85,0.00,,,0.00,WeatherCatV1.11B39,2013-02-24 16:01:00,
2013-02-24 09:06:00,22.6,18.5,30.19,West,275,1.0,3.0,84,0.00,,,0.00,WeatherCatV1.11B39,2013-02-24 16:06:00,
2013-02-24 09:11:00,22.8,18.7,30.19,West,275,0.0,0.0,84,0.00,,,0.00,WeatherCatV1.11B39,2013-02-24 16:11:00,
2013-02-24 09:16:00,22.9,18.8,30.19,West,275,0.0,1.0,84,0.00,,,0.00,WeatherCatV1.11B39,2013-02-24 16:16:00,
2013-02-24 09:21:00,23.0,18.9,30.19,West,275,0.0,1.0,84,0.00,,,0.00,WeatherCatV1.11B39,2013-02-24 16:21:00,
2013-02-24 09:26:00,23.0,18.9,30.19,West,275,0.0,0.0,84,0.00,,,0.00,WeatherCatV1.11B39,2013-02-24 16:26:00,
2013-02-24 09:31:00,22.9,18.5,30.19,West,275,0.0,1.0,83,0.00,,,0.00,WeatherCatV1.11B39,2013-02-24 16:31:00,
2013-02-24 09:36:00,22.9,18.5,30.19,West,275,0.0,0.0,83,0.00,,,0.00,WeatherCatV1.11B39,2013-02-24 16:36:00,
2013-02-24 09:41:00,22.9,18.8,30.20,West,275,0.0,0.0,84,0.00,,,0.00,WeatherCatV1.11B39,2013-02-24 16:41:00,
2013-02-24 09:46:00,22.7,18.3,30.20,West,275,0.0,0.0,83,0.00,,,0.00,WeatherCatV1.11B39,2013-02-24 16:46:00,
2013-02-24 09:51:00,22.6,18.2,30.20,West,275,0.0,0.0,83,0.00,,,0.00,WeatherCatV1.11B39,2013-02-24 16:51:00,
2013-02-24 09:56:00,22.5,18.4,30.20,West,275,0.0,0.0,84,0.00,,,0.00,WeatherCatV1.11B39,2013-02-24 16:56:00,
2013-02-24 10:01:00,22.4,18.6,30.20,West,275,0.0,0.0,85,0.00,,,0.00,WeatherCatV1.11B39,2013-02-24 17:01:00,
2013-02-24 10:06:00,22.4,18.3,30.20,West,275,0.0,2.0,84,0.00,,,0.00,WeatherCatV1.11B39,2013-02-24 17:06:00,
2013-02-24 10:11:00,22.5,18.4,30.20,West,275,0.0,1.0,84,0.00,,,0.00,WeatherCatV1.11B39,2013-02-24 17:11:00,
2013-02-24 10:16:00,22.6,18.8,30.21,West,275,1.0,1.0,85,0.00,,,0.00,WeatherCatV1.11B39,2013-02-24 17:16:00,
2013-02-24 10:21:00,22.6,18.2,30.20,West,275,0.0,2.0,83,0.00,,,0.00,WeatherCatV1.11B39,2013-02-24 17:21:00,
2013-02-24 10:26:00,22.6,18.2,30.20,West,275,0.0,1.0,83,0.00,,,0.00,WeatherCatV1.11B39,2013-02-24 17:26:00,
2013-02-24 10:31:00,22.7,18.6,30.20,West,275,0.0,2.0,84,0.00,,,0.00,WeatherCatV1.11B39,2013-02-24 17:31:00,
2013-02-24 10:36:00,22.7,18.3,30.20,West,275,0.0,1.0,83,0.00,,,0.00,WeatherCatV1.11B39,2013-02-24 17:36:00,
2013-02-24 10:41:00,22.8,18.7,30.20,West,275,0.0,1.0,84,0.00,,,0.00,WeatherCatV1.11B39,2013-02-24 17:41:00,
2013-02-24 10:46:00,23.0,18.6,30.21,West,275,0.0,1.0,83,0.00,,,0.00,WeatherCatV1.11B39,2013-02-24 17:46:00,
2013-02-24 10:51:00,23.3,18.9,30.20,West,275,0.0,0.0,83,0.00,,,0.00,WeatherCatV1.11B39,2013-02-24 17:51:00,
2013-02-24 10:56:00,23.6,18.9,30.20,West,275,0.0,1.0,82,0.00,,,0.00,WeatherCatV1.11B39,2013-02-24 17:56:00,
2013-02-24 11:01:00,23.9,18.9,30.20,West,275,0.0,1.0,81,0.00,,,0.00,WeatherCatV1.11B39,2013-02-24 18:01:00,
2013-02-24 11:06:00,24.0,18.7,30.20,West,275,0.0,0.0,80,0.00,,,0.00,WeatherCatV1.11B39,2013-02-24 18:06:00,
2013-02-24 11:11:00,24.1,18.5,30.20,West,275,2.0,2.0,79,0.00,,,0.00,WeatherCatV1.11B39,2013-02-24 18:11:00,
2013-02-24 11:16:00,24.2,18.6,30.20,West,275,0.0,0.0,79,0.00,,,0.00,WeatherCatV1.11B39,2013-02-24 18:16:00,
2013-02-24 11:21:00,24.5,18.6,30.20,West,274,0.0,3.0,78,0.00,,,0.00,WeatherCatV1.11B39,2013-02-24 18:21:00,
2013-02-24 11:26:00,24.7,19.1,30.20,West,275,0.0,2.0,79,0.00,,,0.00,WeatherCatV1.11B39,2013-02-24 18:26:00,
2013-02-24 11:31:00,24.7,18.8,30.20,West,275,2.0,3.0,78,0.00,,,0.00,WeatherCatV1.11B39,2013-02-24 18:31:00,
2013-02-24 11:36:00,24.5,18.6,30.20,West,277,0.0,3.0,78,0.00,,,0.00,WeatherCatV1.11B39,2013-02-24 18:36:00,
2013-02-24 11:41:00,24.4,18.5,30.21,SE,136,0.0,4.0,78,0.00,,,0.00,WeatherCatV1.11B39,2013-02-24 18:41:00,
2013-02-24 11:46:00,24.7,18.8,30.20,ENE,76,3.0,3.0,78,0.00,,,0.01,WeatherCatV1.11B39,2013-02-24 18:46:00,
2013-02-24 11:51:00,24.7,18.2,30.20,East,87,1.0,5.0,76,0.00,,,0.01,WeatherCatV1.11B39,2013-02-24 18:51:00,
2013-02-24 11:56:00,24.8,18.3,30.20,ESE,117,1.0,1.0,76,0.00,,,0.01,WeatherCatV1.11B39,2013-02-24 18:56:00,
2013-02-24 12:01:00,25.1,18.3,30.20,East,98,1.0,5.0,75,0.00,,,0.01,WeatherCatV1.11B39,2013-02-24 19:01:00,
2013-02-24 12:06:00,25.2,18.7,30.20,East,84,2.0,3.0,76,0.00,,,0.01,WeatherCatV1.11B39,2013-02-24 19:06:00,
2013-02-24 12:11:00,25.4,18.6,30.20,ESE,121,1.0,2.0,75,0.00,,,0.01,WeatherCatV1.11B39,2013-02-24 19:11:00,
2013-02-24 12:16:00,25.7,18.9,30.20,East,93,0.0,5.0,75,0.00,,,0.01,WeatherCatV1.11B39,2013-02-24 19:16:00,
2013-02-24 12:21:00,26.0,18.6,30.20,East,86,2.0,5.0,73,0.00,,,0.01,WeatherCatV1.11B39,2013-02-24 19:21:00,
2013-02-24 12:26:00,26.1,18.3,30.20,East,91,5.0,5.0,72,0.00,,,0.01,WeatherCatV1.11B39,2013-02-24 19:26:00,
2013-02-24 12:31:00,26.1,18.0,30.20,East,82,1.0,2.0,71,0.00,,,0.01,WeatherCatV1.11B39,2013-02-24 19:31:00,
2013-02-24 12:36:00,26.5,18.4,30.20,East,82,3.0,3.0,71,0.00,,,0.01,WeatherCatV1.11B39,2013-02-24 19:36:00,
2013-02-24 12:41:00,27.0,19.2,30.20,East,94,1.0,2.0,72,0.00,,,0.02,WeatherCatV1.11B39,2013-02-24 19:41:00,
2013-02-24 12:46:00,27.5,18.7,30.20,East,94,0.0,2.0,69,0.00,,,0.02,WeatherCatV1.11B39,2013-02-24 19:46:00,
2013-02-24 12:51:00,27.7,18.5,30.20,East,83,2.0,3.0,68,0.00,,,0.02,WeatherCatV1.11B39,2013-02-24 19:51:00,
2013-02-24 12:56:00,27.7,17.8,30.19,ESE,110,2.0,5.0,66,0.00,,,0.02,WeatherCatV1.11B39,2013-02-24 19:56:00,
2013-02-24 13:01:00,28.1,18.6,30.19,South,171,0.0,4.0,67,0.00,,,0.02,WeatherCatV1.11B39,2013-02-24 20:01:00,
2013-02-24 13:06:00,28.4,18.5,30.20,SE,144,1.0,3.0,66,0.00,,,0.03,WeatherCatV1.11B39,2013-02-24 20:06:00,
2013-02-24 13:11:00,28.8,18.5,30.19,SSE,159,3.0,4.0,65,0.00,,,0.03,WeatherCatV1.11B39,2013-02-24 20:11:00,
2013-02-24 13:16:00,29.1,18.8,30.19,SSE,157,1.0,4.0,65,0.00,,,0.03,WeatherCatV1.11B39,2013-02-24 20:16:00,
2013-02-24 13:21:00,29.4,19.1,30.19,SSE,150,1.0,4.0,65,0.00,,,0.03,WeatherCatV1.11B39,2013-02-24 20:21:00,
2013-02-24 13:26:00,29.6,20.0,30.19,SSE,163,6.0,6.0,67,0.00,,,0.03,WeatherCatV1.11B39,2013-02-24 20:26:00,
2013-02-24 13:31:00,29.9,19.9,30.19,WSW,246,2.0,3.0,66,0.00,,,0.03,WeatherCatV1.11B39,2013-02-24 20:31:00,
2013-02-24 13:36:00,30.2,19.5,30.19,South,173,0.0,0.0,64,0.00,,,0.04,WeatherCatV1.11B39,2013-02-24 20:36:00,
2013-02-24 13:41:00,30.6,19.1,30.19,East,85,0.0,3.0,62,0.00,,,0.04,WeatherCatV1.11B39,2013-02-24 20:41:00,
2013-02-24 13:46:00,30.5,19.4,30.19,ESE,118,4.0,5.0,63,0.00,,,0.04,WeatherCatV1.11B39,2013-02-24 20:46:00,
2013-02-24 13:51:00,30.5,19.4,30.19,South,180,2.0,4.0,63,0.00,,,0.04,WeatherCatV1.11B39,2013-02-24 20:51:00,
2013-02-24 13:56:00,31.0,21.7,30.19,North,350,0.0,7.0,68,0.00,,,0.04,WeatherCatV1.11B39,2013-02-24 20:56:00,
2013-02-24 14:01:00,32.0,21.6,30.19,WNW,282,5.0,5.0,65,0.00,,,0.05,WeatherCatV1.11B39,2013-02-24 21:01:00,
2013-02-24 14:06:00,32.7,22.6,30.19,West,280,9.0,9.0,66,0.00,,,0.05,WeatherCatV1.11B39,2013-02-24 21:06:00,
2013-02-24 14:11:00,33.1,22.3,30.19,West,281,3.0,6.0,64,0.00,,,0.05,WeatherCatV1.11B39,2013-02-24 21:11:00,
2013-02-24 14:16:00,33.5,22.6,30.19,WNW,298,5.0,13.0,64,0.00,,,0.05,WeatherCatV1.11B39,2013-02-24 21:16:00,
2013-02-24 14:21:00,33.6,22.4,30.19,NW,311,8.0,10.0,63,0.00,,,0.05,WeatherCatV1.11B39,2013-02-24 21:21:00,
2013-02-24 14:26:00,33.5,21.9,30.19,NW,305,7.0,16.0,62,0.00,,,0.06,WeatherCatV1.11B39,2013-02-24 21:26:00,
2013-02-24 14:31:00,33.4,21.8,30.20,NNE,12,6.0,9.0,62,0.00,,,0.06,WeatherCatV1.11B39,2013-02-24 21:31:00,
2013-02-24 14:36:00,33.5,21.9,30.20,WNW,302,4.0,9.0,62,0.00,,,0.06,WeatherCatV1.11B39,2013-02-24 21:36:00,
2013-02-24 14:41:00,33.5,21.5,30.20,NW,312,4.0,9.0,61,0.00,,,0.06,WeatherCatV1.11B39,2013-02-24 21:41:00,
2013-02-24 14:46:00,33.5,21.9,30.20,NNW,346,2.0,9.0,62,0.00,,,0.06,WeatherCatV1.11B39,2013-02-24 21:46:00,
2013-02-24 14:51:00,33.5,21.5,30.20,NNW,332,6.0,11.0,61,0.00,,,0.06,WeatherCatV1.11B39,2013-02-24 21:51:00,
2013-02-24 14:56:00,33.4,21.4,30.21,North,11,7.0,8.0,61,0.00,,,0.07,WeatherCatV1.11B39,2013-02-24 21:56:00,
2013-02-24 15:01:00,33.5,21.1,30.21,NNW,329,2.0,4.0,60,0.00,,,0.07,WeatherCatV1.11B39,2013-02-24 22:01:00,
2013-02-24 15:06:00,33.4,20.6,30.22,NNW,343,8.0,8.0,59,0.00,,,0.07,WeatherCatV1.11B39,2013-02-24 22:06:00,
2013-02-24 15:11:00,32.9,19.8,30.22,NNW,337,4.0,9.0,58,0.00,,,0.07,WeatherCatV1.11B39,2013-02-24 22:11:00,
2013-02-24 15:16:00,32.8,20.1,30.22,NNW,339,9.0,11.0,59,0.00,,,0.07,WeatherCatV1.11B39,2013-02-24 22:16:00,
2013-02-24 15:21:00,32.5,19.0,30.23,NW,325,4.0,14.0,57,0.00,,,0.07,WeatherCatV1.11B39,2013-02-24 22:21:00,
2013-02-24 15:26:00,32.2,19.5,30.23,NW,310,4.0,6.0,59,0.00,,,0.07,WeatherCatV1.11B39,2013-02-24 22:26:00,
2013-02-24 15:31:00,32.0,18.5,30.23,North,351,0.0,7.0,57,0.00,,,0.07,WeatherCatV1.11B39,2013-02-24 22:31:00,
2013-02-24 15:36:00,31.9,18.8,30.24,WNW,298,5.0,6.0,58,0.00,,,0.08,WeatherCatV1.11B39,2013-02-24 22:36:00,
2013-02-24 15:41:00,31.6,18.1,30.24,NNW,347,5.0,11.0,57,0.00,,,0.08,WeatherCatV1.11B39,2013-02-24 22:41:00,
2013-02-24 15:46:00,31.3,17.4,30.24,NW,304,1.0,6.0,56,0.00,,,0.08,WeatherCatV1.11B39,2013-02-24 22:46:00,
2013-02-24 15:51:00,31.2,17.8,30.24,North,5,5.0,9.0,57,0.00,,,0.08,WeatherCatV1.11B39,2013-02-24 22:51:00,
2013-02-24 15:56:00,31.0,17.2,30.25,West,279,3.0,9.0,56,0.00,,,0.08,WeatherCatV1.11B39,2013-02-24 22:56:00,
2013-02-24 16:01:00,30.9,16.7,30.25,NW,319,2.0,14.0,55,0.00,,,0.08,WeatherCatV1.11B39,2013-02-24 23:01:00,
2013-02-24 16:06:00,30.8,17.4,30.25,West,269,6.0,7.0,57,0.00,,,0.08,WeatherCatV1.11B39,2013-02-24 23:06:00,
2013-02-24 16:11:00,30.9,17.5,30.26,NNW,330,3.0,12.0,57,0.00,,,0.08,WeatherCatV1.11B39,2013-02-24 23:11:00,
2013-02-24 16:17:00,30.8,17.0,30.26,NNW,341,5.0,5.0,56,0.00,,,0.08,WeatherCatV1.11B39,2013-02-24 23:17:00,
2013-02-24 16:22:00,30.7,16.9,30.27,WNW,303,1.0,2.0,56,0.00,,,0.09,WeatherCatV1.11B39,2013-02-24 23:22:00,
2013-02-24 16:27:00,30.7,16.5,30.27,NW,323,2.0,4.0,55,0.00,,,0.09,WeatherCatV1.11B39,2013-02-24 23:27:00,
2013-02-24 16:32:00,30.6,17.2,30.27,East,101,2.0,2.0,57,0.00,,,0.09,WeatherCatV1.11B39,2013-02-24 23:32:00,
2013-02-24 16:37:00,30.5,16.3,30.27,NE,46,1.0,1.0,55,0.00,,,0.09,WeatherCatV1.11B39,2013-02-24 23:37:00,
2013-02-24 16:42:00,30.3,16.1,30.27,ENE,61,3.0,4.0,55,0.00,,,0.09,WeatherCatV1.11B39,2013-02-24 23:42:00,
2013-02-24 16:47:00,30.1,15.9,30.28,NNW,348,2.0,3.0,55,0.00,,,0.09,WeatherCatV1.11B39,2013-02-24 23:47:00,
2013-02-24 16:52:00,29.9,15.3,30.28,East,88,5.0,13.0,54,0.00,,,0.09,WeatherCatV1.11B39,2013-02-24 23:52:00,
2013-02-24 16:57:00,29.7,15.1,30.28,NE,40,3.0,6.0,54,0.00,,,0.09,WeatherCatV1.11B39,2013-02-24 23:57:00,
2013-02-24 17:02:00,29.6,15.4,30.29,NE,48,3.0,4.0,55,0.00,,,0.10,WeatherCatV1.11B39,2013-02-25 00:02:00,
2013-02-24 17:07:00,29.5,15.8,30.29,NNE,32,0.0,6.0,56,0.15,,,0.11,WeatherCatV1.11B39,2013-02-25 00:07:00,
2013-02-24 17:12:00,29.4,15.7,30.30,NE,35,3.0,3.0,56,0.18,,,0.13,WeatherCatV1.11B39,2013-02-25 00:12:00,
2013-02-24 17:17:00,29.4,15.7,30.30,North,0,2.0,3.0,56,0.14,,,0.14,WeatherCatV1.11B39,2013-02-25 00:17:00,
2013-02-24 17:22:00,29.3,15.6,30.30,North,5,3.0,3.0,56,0.10,,,0.14,WeatherCatV1.11B39,2013-02-25 00:22:00,
2013-02-24 17:27:00,29.2,15.9,30.31,North,355,2.0,7.0,57,0.05,,,0.14,WeatherCatV1.11B39,2013-02-25 00:27:00,
2013-02-24 17:32:00,29.1,15.4,30.31,NNE,26,0.0,3.0,56,0.05,,,0.15,WeatherCatV1.11B39,2013-02-25 00:32:00,
2013-02-24 17:37:00,29.0,14.9,30.31,NE,55,4.0,6.0,55,0.05,,,0.15,WeatherCatV1.11B39,2013-02-25 00:37:00,
2013-02-24 17:42:00,28.9,15.2,30.32,North,355,0.0,5.0,56,0.04,,,0.15,WeatherCatV1.11B39,2013-02-25 00:42:00,
2013-02-24 17:47:00,28.8,15.5,30.32,NNE,15,0.0,4.0,57,0.00,,,0.15,WeatherCatV1.11B39,2013-02-25 00:47:00,
2013-02-24 17:52:00,28.7,14.6,30.32,North,350,2.0,3.0,55,0.00,,,0.15,WeatherCatV1.11B39,2013-02-25 00:52:00,
2013-02-24 17:57:00,28.6,15.7,30.32,ENE,73,4.0,5.0,58,0.00,,,0.15,WeatherCatV1.11B39,2013-02-25 00:57:00,
2013-02-24 18:02:00,28.5,15.2,30.32,NNW,327,0.0,5.0,57,0.00,,,0.15,WeatherCatV1.11B39,2013-02-25 01:02:00,
2013-02-24 18:07:00,28.4,15.5,30.33,NNW,328,0.0,1.0,58,0.00,,,0.15,WeatherCatV1.11B39,2013-02-25 01:07:00,
2013-02-24 18:12:00,28.3,15.8,30.33,NNW,328,1.0,2.0,59,0.00,,,0.15,WeatherCatV1.11B39,2013-02-25 01:12:00,
2013-02-24 18:17:00,28.1,15.3,30.33,NNW,328,0.0,0.0,58,0.00,,,0.15,WeatherCatV1.11B39,2013-02-25 01:17:00,
2013-02-24 18:22:00,28.0,16.3,30.33,NNW,328,0.0,0.0,61,0.00,,,0.15,WeatherCatV1.11B39,2013-02-25 01:22:00,
2013-02-24 18:27:00,27.9,16.2,30.34,NNW,328,0.0,1.0,61,0.00,,,0.15,WeatherCatV1.11B39,2013-02-25 01:27:00,
2013-02-24 18:32:00,27.7,16.8,30.34,NNW,328,2.0,2.0,63,0.00,,,0.15,WeatherCatV1.11B39,2013-02-25 01:32:00,
2013-02-24 18:37:00,27.5,16.2,30.34,NNW,327,1.0,3.0,62,0.00,,,0.15,WeatherCatV1.11B39,2013-02-25 01:37:00,
2013-02-24 18:42:00,27.3,15.7,30.35,WNW,303,2.0,3.0,61,0.00,,,0.15,WeatherCatV1.11B39,2013-02-25 01:42:00,
2013-02-24 18:47:00,27.2,15.6,30.35,WNW,293,0.0,4.0,61,0.00,,,0.15,WeatherCatV1.11B39,2013-02-25 01:47:00,
2013-02-24 18:52:00,27.2,14.8,30.35,WNW,293,2.0,3.0,59,0.00,,,0.15,WeatherCatV1.11B39,2013-02-25 01:52:00,
2013-02-24 18:57:00,27.3,14.9,30.36,WNW,293,0.0,3.0,59,0.00,,,0.15,WeatherCatV1.11B39,2013-02-25 01:57:00,
2013-02-24 19:02:00,27.2,15.2,30.36,WNW,293,0.0,5.0,60,0.00,,,0.15,WeatherCatV1.11B39,2013-02-25 02:02:00,
2013-02-24 19:07:00,27.1,15.1,30.36,WNW,293,4.0,4.0,60,0.00,,,0.15,WeatherCatV1.11B39,2013-02-25 02:07:00,
2013-02-24 19:12:00,26.9,14.9,30.36,WNW,293,2.0,3.0,60,0.00,,,0.15,WeatherCatV1.11B39,2013-02-25 02:12:00,
2013-02-24 19:17:00,26.9,15.3,30.36,WNW,293,2.0,5.0,61,0.00,,,0.15,WeatherCatV1.11B39,2013-02-25 02:17:00,
2013-02-24 19:22:00,26.8,14.8,30.37,NNW,340,4.0,5.0,60,0.00,,,0.15,WeatherCatV1.11B39,2013-02-25 02:22:00,
2013-02-24 19:27:00,26.8,14.4,30.37,NNW,348,2.0,7.0,59,0.00,,,0.15,WeatherCatV1.11B39,2013-02-25 02:27:00,
2013-02-24 19:32:00,27.0,15.4,30.37,WNW,297,1.0,5.0,61,0.00,,,0.15,WeatherCatV1.11B39,2013-02-25 02:32:00,
2013-02-24 19:37:00,27.0,15.4,30.37,NW,304,2.0,4.0,61,0.00,,,0.15,WeatherCatV1.11B39,2013-02-25 02:37:00,
2013-02-24 19:42:00,26.9,14.9,30.38,WNW,292,0.0,4.0,60,0.00,,,0.15,WeatherCatV1.11B39,2013-02-25 02:42:00,
2013-02-24 19:47:00,26.8,15.2,30.38,WNW,287,2.0,4.0,61,0.00,,,0.15,WeatherCatV1.11B39,2013-02-25 02:47:00,
2013-02-24 19:52:00,26.6,15.0,30.38,WNW,292,0.0,4.0,61,0.00,,,0.15,WeatherCatV1.11B39,2013-02-25 02:52:00,
2013-02-24 19:57:00,26.4,14.8,30.38,WNW,294,2.0,3.0,61,0.00,,,0.15,WeatherCatV1.11B39,2013-02-25 02:57:00,
2013-02-24 20:02:00,26.2,15.0,30.38,WNW,294,1.0,3.0,62,0.00,,,0.15,WeatherCatV1.11B39,2013-02-25 03:02:00,
2013-02-24 20:07:00,26.0,14.8,30.38,NW,312,1.0,2.0,62,0.00,,,0.15,WeatherCatV1.11B39,2013-02-25 03:07:00,
2013-02-24 20:12:00,25.9,14.3,30.39,North,355,0.0,1.0,61,0.00,,,0.15,WeatherCatV1.11B39,2013-02-25 03:12:00,
2013-02-24 20:17:00,25.8,16.0,30.39,ESE,115,0.0,3.0,66,0.00,,,0.15,WeatherCatV1.11B39,2013-02-25 03:17:00,
2013-02-24 20:22:00,25.7,15.6,30.39,ESE,116,0.0,1.0,65,0.00,,,0.15,WeatherCatV1.11B39,2013-02-25 03:22:00,
2013-02-24 20:27:00,25.5,15.7,30.39,ESE,116,0.0,0.0,66,0.00,,,0.15,WeatherCatV1.11B39,2013-02-25 03:27:00,
2013-02-24 20:32:00,25.3,15.9,30.40,ESE,116,0.0,0.0,67,0.00,,,0.15,WeatherCatV1.11B39,2013-02-25 03:32:00,
2013-02-24 20:37:00,25.1,15.0,30.40,NNE,30,0.0,1.0,65,0.00,,,0.15,WeatherCatV1.11B39,2013-02-25 03:37:00,
2013-02-24 20:42:00,24.9,15.9,30.40,NNE,30,0.0,0.0,68,0.00,,,0.15,WeatherCatV1.11B39,2013-02-25 03:42:00,
2013-02-24 20:47:00,24.6,16.2,30.40,NNE,30,0.0,0.0,70,0.00,,,0.15,WeatherCatV1.11B39,2013-02-25 03:47:00,
2013-02-24 20:52:00,24.0,16.0,30.40,East,81,0.0,3.0,71,0.00,,,0.15,WeatherCatV1.11B39,2013-02-25 03:52:00,
2013-02-24 20:57:00,23.8,14.8,30.40,East,80,0.0,0.0,68,0.00,,,0.15,WeatherCatV1.11B39,2013-02-25 03:57:00,
2013-02-24 21:02:00,23.6,14.9,30.41,East,80,0.0,1.0,69,0.00,,,0.15,WeatherCatV1.11B39,2013-02-25 04:02:00,
2013-02-24 21:07:00,23.2,14.2,30.41,ENE,78,1.0,3.0,68,0.00,,,0.15,WeatherCatV1.11B39,2013-02-25 04:07:00,
2013-02-24 21:12:00,22.8,14.2,30.41,East,88,1.0,2.0,69,0.00,,,0.15,WeatherCatV1.11B39,2013-02-25 04:12:00,
2013-02-24 21:17:00,22.4,14.4,30.41,South,176,0.0,2.0,71,0.00,,,0.15,WeatherCatV1.11B39,2013-02-25 04:17:00,
2013-02-24 21:22:00,21.9,13.3,30.42,South,176,0.0,0.0,69,0.00,,,0.15,WeatherCatV1.11B39,2013-02-25 04:22:00,
2013-02-24 21:27:00,21.4,13.5,30.42,South,175,1.0,2.0,71,0.00,,,0.15,WeatherCatV1.11B39,2013-02-25 04:27:00,
2013-02-24 21:32:00,20.7,13.7,30.42,South,175,0.0,2.0,74,0.00,,,0.15,WeatherCatV1.11B39,2013-02-25 04:32:00,
2013-02-24 21:37:00,20.1,13.2,30.42,South,175,0.0,0.0,74,0.00,,,0.15,WeatherCatV1.11B39,2013-02-25 04:37:00,
2013-02-24 21:42:00,19.8,12.9,30.42,NE,44,0.0,3.0,74,0.00,,,0.15,WeatherCatV1.11B39,2013-02-25 04:42:00,
2013-02-24 21:47:00,19.5,13.5,30.43,NE,49,0.0,1.0,77,0.00,,,0.15,WeatherCatV1.11B39,2013-02-25 04:47:00,
2013-02-24 21:52:00,19.4,13.1,30.43,NE,51,0.0,0.0,76,0.00,,,0.15,WeatherCatV1.11B39,2013-02-25 04:52:00,
2013-02-24 21:57:00,19.1,12.8,30.43,NE,51,0.0,0.0,76,0.00,,,0.15,WeatherCatV1.11B39,2013-02-25 04:57:00,
2013-02-24 22:00:00,18.7,12.7,30.43,NE,51,0.0,1.0,77,0.00,,,0.15,WeatherCatV1.11B39,2013-02-25 05:00:00,
2013-02-24 22:05:00,18.1,12.4,30.44,NE,51,1.0,1.0,78,0.00,,,0.15,WeatherCatV1.11B39,2013-02-25 05:05:00,
2013-02-24 22:10:00,17.9,12.2,30.44,NE,51,0.0,0.0,78,0.00,,,0.15,WeatherCatV1.11B39,2013-02-25 05:10:00,
2013-02-24 22:15:00,17.5,11.5,30.44,NE,51,0.0,0.0,77,0.00,,,0.15,WeatherCatV1.11B39,2013-02-25 05:15:00,
2013-02-24 22:20:00,17.0,11.1,30.44,NE,51,1.0,1.0,77,0.00,,,0.15,WeatherCatV1.11B39,2013-02-25 05:20:00,
2013-02-24 22:25:00,16.6,11.5,30.44,NE,51,0.0,0.0,80,0.00,,,0.15,WeatherCatV1.11B39,2013-02-25 05:25:00,
2013-02-24 22:30:00,16.2,10.9,30.45,NE,51,0.0,0.0,79,0.00,,,0.15,WeatherCatV1.11B39,2013-02-25 05:30:00,
2013-02-24 22:35:00,15.6,10.6,30.45,ENE,68,0.0,0.0,80,0.00,,,0.15,WeatherCatV1.11B39,2013-02-25 05:35:00,
2013-02-24 22:40:00,15.2,10.4,30.45,ENE,68,0.0,0.0,81,0.00,,,0.15,WeatherCatV1.11B39,2013-02-25 05:40:00,
2013-02-24 22:45:00,14.9,10.4,30.45,ENE,68,0.0,0.0,82,0.00,,,0.15,WeatherCatV1.11B39,2013-02-25 05:45:00,
2013-02-24 22:50:00,14.7,10.5,30.45,ENE,68,0.0,1.0,83,0.00,,,0.15,WeatherCatV1.11B39,2013-02-25 05:50:00,
2013-02-24 22:55:00,14.6,10.1,30.45,ENE,68,0.0,1.0,82,0.00,,,0.15,WeatherCatV1.11B39,2013-02-25 05:55:00,
2013-02-24 23:00:00,14.3,9.3,30.46,ENE,68,0.0,0.0,80,0.00,,,0.15,WeatherCatV1.11B39,2013-02-25 06:00:00,
2013-02-24 23:05:00,13.9,9.2,30.46,ENE,68,0.0,0.0,81,0.00,,,0.15,WeatherCatV1.11B39,2013-02-25 06:05:00,
2013-02-24 23:10:00,13.7,9.5,30.46,ENE,68,0.0,0.0,83,0.00,,,0.15,WeatherCatV1.11B39,2013-02-25 06:10:00,
2013-02-24 23:15:00,13.5,9.6,30.47,ENE,68,0.0,0.0,84,0.00,,,0.15,WeatherCatV1.11B39,2013-02-25 06:15:00,
2013-02-24 23:20:00,13.1,8.9,30.47,ENE,68,0.0,1.0,83,0.00,,,0.15,WeatherCatV1.11B39,2013-02-25 06:20:00,
2013-02-24 23:25:00,12.8,8.6,30.47,ENE,68,0.0,0.0,83,0.00,,,0.15,WeatherCatV1.11B39,2013-02-25 06:25:00,
2013-02-24 23:30:00,12.6,8.7,30.47,ENE,68,0.0,1.0,84,0.00,,,0.15,WeatherCatV1.11B39,2013-02-25 06:30:00,
2013-02-24 23:35:00,12.4,8.5,30.48,ENE,68,0.0,0.0,84,0.00,,,0.15,WeatherCatV1.11B39,2013-02-25 06:35:00,
2013-02-24 23:40:00,12.1,8.5,30.48,ESE,117,0.0,0.0,85,0.00,,,0.15,WeatherCatV1.11B39,2013-02-25 06:40:00,
2013-02-24 23:45:00,11.7,8.1,30.48,ESE,115,0.0,0.0,85,0.00,,,0.15,WeatherCatV1.11B39,2013-02-25 06:45:00,
2013-02-24 23:50:00,11.4,7.8,30.48,ESE,115,0.0,0.0,85,0.00,,,0.15,WeatherCatV1.11B39,2013-02-25 06:50:00,
2013-02-24 23:55:00,11.2,7.8,30.48,ESE,115,0.0,0.0,86,0.00,,,0.15,WeatherCatV1.11B39,2013-02-25 06:55:00,